sensor_id;sensor_type;location;lat;lon;timestamp;P1;durP1;ratioP1;P2;durP2;ratioP2
55150;SDS011;41041;43.162;20.538;2024-02-26T00:03:40;27.58;;;15.68;;
55150;SDS011;41041;43.162;20.538;2024-02-26T00:46:06;32.53;;;17.25;;
55150;SDS011;41041;43.162;20.538;2024-02-26T00:48:32;30.70;;;17.27;;
55150;SDS011;41041;43.162;20.538;2024-02-26T00:50:58;35.17;;;18.75;;
55150;SDS011;41041;43.162;20.538;2024-02-26T00:59:45;33.40;;;19.17;;
55150;SDS011;41041;43.162;20.538;2024-02-26T01:05:15;27.15;;;16.77;;
55150;SDS011;41041;43.162;20.538;2024-02-26T01:07:41;34.03;;;19.30;;
55150;SDS011;41041;43.162;20.538;2024-02-26T01:10:08;34.10;;;19.50;;
55150;SDS011;41041;43.162;20.538;2024-02-26T01:12:34;38.95;;;19.88;;
55150;SDS011;41041;43.162;20.538;2024-02-26T01:18:17;35.45;;;19.42;;
55150;SDS011;41041;43.162;20.538;2024-02-26T01:23:47;35.08;;;18.50;;
55150;SDS011;41041;43.162;20.538;2024-02-26T01:29:17;37.25;;;19.35;;
55150;SDS011;41041;43.162;20.538;2024-02-26T01:31:43;31.30;;;18.10;;
55150;SDS011;41041;43.162;20.538;2024-02-26T01:34:09;28.52;;;16.88;;
55150;SDS011;41041;43.162;20.538;2024-02-26T01:36:36;29.02;;;16.52;;
55150;SDS011;41041;43.162;20.538;2024-02-26T01:39:02;24.90;;;14.65;;
55150;SDS011;41041;43.162;20.538;2024-02-26T01:41:28;33.55;;;18.85;;
55150;SDS011;41041;43.162;20.538;2024-02-26T01:43:54;34.33;;;18.58;;
55150;SDS011;41041;43.162;20.538;2024-02-26T01:46:21;39.00;;;21.50;;
55150;SDS011;41041;43.162;20.538;2024-02-26T01:48:50;35.45;;;18.98;;
55150;SDS011;41041;43.162;20.538;2024-02-26T01:51:16;33.28;;;19.17;;
55150;SDS011;41041;43.162;20.538;2024-02-26T01:53:43;31.98;;;18.45;;
55150;SDS011;41041;43.162;20.538;2024-02-26T01:56:09;34.70;;;19.35;;
55150;SDS011;41041;43.162;20.538;2024-02-26T01:58:35;35.55;;;18.50;;
55150;SDS011;41041;43.162;20.538;2024-02-26T02:04:05;30.95;;;16.58;;
55150;SDS011;41041;43.162;20.538;2024-02-26T02:06:31;33.13;;;17.83;;
55150;SDS011;41041;43.162;20.538;2024-02-26T02:08:58;25.77;;;15.85;;
55150;SDS011;41041;43.162;20.538;2024-02-26T02:14:51;31.35;;;17.48;;
55150;SDS011;41041;43.162;20.538;2024-02-26T02:20:31;51.25;;;29.20;;
55150;SDS011;41041;43.162;20.538;2024-02-26T02:22:58;59.38;;;37.05;;
55150;SDS011;41041;43.162;20.538;2024-02-26T02:25:24;63.53;;;41.78;;
55150;SDS011;41041;43.162;20.538;2024-02-26T02:27:50;44.38;;;27.02;;
55150;SDS011;41041;43.162;20.538;2024-02-26T02:30:29;42.80;;;24.45;;
55150;SDS011;41041;43.162;20.538;2024-02-26T02:32:59;46.00;;;26.83;;
55150;SDS011;41041;43.162;20.538;2024-02-26T02:35:33;44.42;;;27.58;;
55150;SDS011;41041;43.162;20.538;2024-02-26T02:38:03;40.75;;;25.88;;
55150;SDS011;41041;43.162;20.538;2024-02-26T02:40:29;36.42;;;23.50;;
55150;SDS011;41041;43.162;20.538;2024-02-26T02:42:55;75.85;;;42.30;;
55150;SDS011;41041;43.162;20.538;2024-02-26T02:45:21;44.45;;;26.60;;
55150;SDS011;41041;43.162;20.538;2024-02-26T02:47:47;34.55;;;22.05;;
55150;SDS011;41041;43.162;20.538;2024-02-26T02:53:23;35.97;;;21.73;;
55150;SDS011;41041;43.162;20.538;2024-02-26T02:55:49;38.22;;;20.35;;
55150;SDS011;41041;43.162;20.538;2024-02-26T02:58:16;35.58;;;20.45;;
55150;SDS011;41041;43.162;20.538;2024-02-26T03:00:42;38.78;;;22.42;;
55150;SDS011;41041;43.162;20.538;2024-02-26T03:06:12;38.63;;;22.42;;
55150;SDS011;41041;43.162;20.538;2024-02-26T03:08:38;41.28;;;25.52;;
55150;SDS011;41041;43.162;20.538;2024-02-26T03:11:06;35.60;;;23.40;;
55150;SDS011;41041;43.162;20.538;2024-02-26T03:16:49;30.83;;;19.58;;
55150;SDS011;41041;43.162;20.538;2024-02-26T03:19:18;28.85;;;17.92;;
55150;SDS011;41041;43.162;20.538;2024-02-26T03:21:45;31.42;;;18.55;;
55150;SDS011;41041;43.162;20.538;2024-02-26T03:24:11;22.85;;;14.07;;
55150;SDS011;41041;43.162;20.538;2024-02-26T03:26:37;32.20;;;18.27;;
55150;SDS011;41041;43.162;20.538;2024-02-26T03:29:03;34.15;;;18.15;;
55150;SDS011;41041;43.162;20.538;2024-02-26T03:31:31;29.83;;;18.58;;
55150;SDS011;41041;43.162;20.538;2024-02-26T03:33:57;29.10;;;18.63;;
55150;SDS011;41041;43.162;20.538;2024-02-26T03:36:24;33.70;;;19.33;;
55150;SDS011;41041;43.162;20.538;2024-02-26T03:38:50;34.42;;;18.13;;
55150;SDS011;41041;43.162;20.538;2024-02-26T03:41:31;29.25;;;18.65;;
55150;SDS011;41041;43.162;20.538;2024-02-26T03:43:57;29.92;;;19.10;;
55150;SDS011;41041;43.162;20.538;2024-02-26T03:46:24;34.00;;;18.05;;
55150;SDS011;41041;43.162;20.538;2024-02-26T03:49:02;28.08;;;17.05;;
55150;SDS011;41041;43.162;20.538;2024-02-26T03:51:28;27.73;;;15.07;;
55150;SDS011;41041;43.162;20.538;2024-02-26T03:53:58;21.52;;;14.65;;
55150;SDS011;41041;43.162;20.538;2024-02-26T03:56:24;20.75;;;13.88;;
55150;SDS011;41041;43.162;20.538;2024-02-26T03:58:50;19.30;;;12.73;;
55150;SDS011;41041;43.162;20.538;2024-02-26T04:07:26;21.23;;;12.25;;
55150;SDS011;41041;43.162;20.538;2024-02-26T04:22:39;25.80;;;15.02;;
55150;SDS011;41041;43.162;20.538;2024-02-26T04:25:05;25.08;;;15.65;;
55150;SDS011;41041;43.162;20.538;2024-02-26T04:27:32;22.95;;;13.50;;
55150;SDS011;41041;43.162;20.538;2024-02-26T04:29:58;19.08;;;12.82;;
55150;SDS011;41041;43.162;20.538;2024-02-26T04:32:24;21.77;;;12.18;;
55150;SDS011;41041;43.162;20.538;2024-02-26T04:34:50;24.30;;;14.15;;
55150;SDS011;41041;43.162;20.538;2024-02-26T04:37:16;24.40;;;13.95;;
55150;SDS011;41041;43.162;20.538;2024-02-26T04:39:42;31.30;;;18.10;;
55150;SDS011;41041;43.162;20.538;2024-02-26T04:42:09;35.63;;;20.33;;
55150;SDS011;41041;43.162;20.538;2024-02-26T04:44:35;34.67;;;19.98;;
55150;SDS011;41041;43.162;20.538;2024-02-26T04:47:01;33.00;;;20.20;;
55150;SDS011;41041;43.162;20.538;2024-02-26T04:49:27;36.22;;;19.35;;
55150;SDS011;41041;43.162;20.538;2024-02-26T04:51:53;31.42;;;19.05;;
55150;SDS011;41041;43.162;20.538;2024-02-26T04:54:23;27.88;;;16.88;;
55150;SDS011;41041;43.162;20.538;2024-02-26T04:56:49;25.15;;;15.50;;
55150;SDS011;41041;43.162;20.538;2024-02-26T05:02:06;27.58;;;16.98;;
55150;SDS011;41041;43.162;20.538;2024-02-26T05:04:32;30.33;;;18.38;;
55150;SDS011;41041;43.162;20.538;2024-02-26T05:06:58;54.33;;;27.15;;
55150;SDS011;41041;43.162;20.538;2024-02-26T05:09:24;62.88;;;36.17;;
55150;SDS011;41041;43.162;20.538;2024-02-26T05:20:46;47.92;;;26.88;;
55150;SDS011;41041;43.162;20.538;2024-02-26T05:23:12;47.10;;;26.48;;
55150;SDS011;41041;43.162;20.538;2024-02-26T05:25:39;48.40;;;25.38;;
55150;SDS011;41041;43.162;20.538;2024-02-26T05:28:06;42.35;;;22.13;;
55150;SDS011;41041;43.162;20.538;2024-02-26T05:30:34;39.40;;;23.40;;
55150;SDS011;41041;43.162;20.538;2024-02-26T05:42:20;43.97;;;23.70;;
55150;SDS011;41041;43.162;20.538;2024-02-26T05:44:46;38.50;;;22.08;;
55150;SDS011;41041;43.162;20.538;2024-02-26T05:47:13;41.15;;;23.17;;
55150;SDS011;41041;43.162;20.538;2024-02-26T05:49:44;43.22;;;24.92;;
55150;SDS011;41041;43.162;20.538;2024-02-26T05:55:20;48.28;;;27.58;;
55150;SDS011;41041;43.162;20.538;2024-02-26T06:00:52;44.10;;;24.70;;
55150;SDS011;41041;43.162;20.538;2024-02-26T06:03:18;47.40;;;24.20;;
55150;SDS011;41041;43.162;20.538;2024-02-26T06:05:47;81.80;;;40.83;;
55150;SDS011;41041;43.162;20.538;2024-02-26T06:08:13;93.60;;;48.20;;
55150;SDS011;41041;43.162;20.538;2024-02-26T06:10:39;103.00;;;47.72;;
55150;SDS011;41041;43.162;20.538;2024-02-26T06:13:05;78.35;;;40.83;;
55150;SDS011;41041;43.162;20.538;2024-02-26T06:15:32;39.92;;;21.15;;
55150;SDS011;41041;43.162;20.538;2024-02-26T06:26:35;43.40;;;21.65;;
55150;SDS011;41041;43.162;20.538;2024-02-26T06:29:02;37.22;;;20.80;;
55150;SDS011;41041;43.162;20.538;2024-02-26T06:31:29;52.17;;;23.70;;
55150;SDS011;41041;43.162;20.538;2024-02-26T07:02:55;54.17;;;29.27;;
55150;SDS011;41041;43.162;20.538;2024-02-26T07:05:24;50.65;;;27.95;;
55150;SDS011;41041;43.162;20.538;2024-02-26T07:07:50;48.38;;;26.98;;
55150;SDS011;41041;43.162;20.538;2024-02-26T07:10:16;48.65;;;26.13;;
55150;SDS011;41041;43.162;20.538;2024-02-26T07:12:46;44.03;;;23.98;;
55150;SDS011;41041;43.162;20.538;2024-02-26T07:15:15;47.67;;;26.75;;
55150;SDS011;41041;43.162;20.538;2024-02-26T07:17:41;44.10;;;26.27;;
55150;SDS011;41041;43.162;20.538;2024-02-26T07:20:15;50.92;;;27.30;;
55150;SDS011;41041;43.162;20.538;2024-02-26T07:35:50;84.88;;;46.50;;
55150;SDS011;41041;43.162;20.538;2024-02-26T07:38:18;78.32;;;50.53;;
55150;SDS011;41041;43.162;20.538;2024-02-26T07:40:59;102.80;;;60.40;;
55150;SDS011;41041;43.162;20.538;2024-02-26T07:43:25;110.30;;;64.40;;
55150;SDS011;41041;43.162;20.538;2024-02-26T07:45:51;102.05;;;60.20;;
55150;SDS011;41041;43.162;20.538;2024-02-26T07:48:17;99.68;;;59.28;;
55150;SDS011;41041;43.162;20.538;2024-02-26T07:50:43;91.50;;;57.28;;
55150;SDS011;41041;43.162;20.538;2024-02-26T07:55:45;97.05;;;59.13;;
55150;SDS011;41041;43.162;20.538;2024-02-26T07:58:22;97.10;;;61.42;;
55150;SDS011;41041;43.162;20.538;2024-02-26T08:00:48;100.93;;;61.95;;
55150;SDS011;41041;43.162;20.538;2024-02-26T08:03:14;102.15;;;63.42;;
55150;SDS011;41041;43.162;20.538;2024-02-26T08:05:41;94.55;;;58.67;;
55150;SDS011;41041;43.162;20.538;2024-02-26T08:08:13;87.20;;;53.03;;
55150;SDS011;41041;43.162;20.538;2024-02-26T08:10:41;75.30;;;44.45;;
55150;SDS011;41041;43.162;20.538;2024-02-26T08:13:08;65.22;;;39.47;;
55150;SDS011;41041;43.162;20.538;2024-02-26T08:15:34;79.13;;;47.22;;
55150;SDS011;41041;43.162;20.538;2024-02-26T08:18:04;76.85;;;47.47;;
55150;SDS011;41041;43.162;20.538;2024-02-26T08:20:31;85.80;;;47.38;;
55150;SDS011;41041;43.162;20.538;2024-02-26T08:22:57;78.28;;;47.22;;
55150;SDS011;41041;43.162;20.538;2024-02-26T08:25:24;80.30;;;48.45;;
55150;SDS011;41041;43.162;20.538;2024-02-26T08:27:50;59.35;;;36.85;;
55150;SDS011;41041;43.162;20.538;2024-02-26T08:30:16;60.85;;;36.65;;
55150;SDS011;41041;43.162;20.538;2024-02-26T08:32:43;60.42;;;35.00;;
55150;SDS011;41041;43.162;20.538;2024-02-26T08:35:09;52.92;;;31.35;;
55150;SDS011;41041;43.162;20.538;2024-02-26T08:37:36;51.10;;;31.52;;
55150;SDS011;41041;43.162;20.538;2024-02-26T08:40:02;52.05;;;30.35;;
55150;SDS011;41041;43.162;20.538;2024-02-26T08:42:32;54.35;;;32.22;;
55150;SDS011;41041;43.162;20.538;2024-02-26T08:53:20;29.95;;;17.38;;
55150;SDS011;41041;43.162;20.538;2024-02-26T08:55:48;32.25;;;17.98;;
55150;SDS011;41041;43.162;20.538;2024-02-26T08:58:14;33.45;;;18.88;;
55150;SDS011;41041;43.162;20.538;2024-02-26T09:00:43;26.52;;;17.73;;
55150;SDS011;41041;43.162;20.538;2024-02-26T09:03:09;22.25;;;11.55;;
55150;SDS011;41041;43.162;20.538;2024-02-26T09:05:35;18.17;;;8.82;;
55150;SDS011;41041;43.162;20.538;2024-02-26T09:13:11;37.07;;;21.47;;
55150;SDS011;41041;43.162;20.538;2024-02-26T09:15:54;34.13;;;21.15;;
55150;SDS011;41041;43.162;20.538;2024-02-26T09:18:40;30.67;;;18.05;;
55150;SDS011;41041;43.162;20.538;2024-02-26T09:30:51;27.65;;;15.32;;
55150;SDS011;41041;43.162;20.538;2024-02-26T09:33:29;26.10;;;13.93;;
55150;SDS011;41041;43.162;20.538;2024-02-26T09:45:10;12.95;;;6.60;;
55150;SDS011;41041;43.162;20.538;2024-02-26T09:47:40;14.02;;;5.43;;
55150;SDS011;41041;43.162;20.538;2024-02-26T09:50:07;12.77;;;5.28;;
55150;SDS011;41041;43.162;20.538;2024-02-26T09:52:37;10.48;;;5.70;;
55150;SDS011;41041;43.162;20.538;2024-02-26T09:55:04;13.43;;;5.22;;
55150;SDS011;41041;43.162;20.538;2024-02-26T11:07:31;10.23;;;5.30;;
55150;SDS011;41041;43.162;20.538;2024-02-26T11:10:00;8.15;;;4.00;;
55150;SDS011;41041;43.162;20.538;2024-02-26T11:21:39;8.77;;;2.70;;
55150;SDS011;41041;43.162;20.538;2024-02-26T11:24:15;4.38;;;2.00;;
55150;SDS011;41041;43.162;20.538;2024-02-26T11:26:47;6.35;;;1.80;;
55150;SDS011;41041;43.162;20.538;2024-02-26T11:29:47;5.90;;;1.92;;
55150;SDS011;41041;43.162;20.538;2024-02-26T11:32:13;6.68;;;2.42;;
55150;SDS011;41041;43.162;20.538;2024-02-26T11:34:40;7.35;;;1.60;;
55150;SDS011;41041;43.162;20.538;2024-02-26T11:37:41;5.38;;;2.30;;
55150;SDS011;41041;43.162;20.538;2024-02-26T11:46:07;7.03;;;2.10;;
55150;SDS011;41041;43.162;20.538;2024-02-26T11:55:01;3.95;;;1.77;;
55150;SDS011;41041;43.162;20.538;2024-02-26T12:00:31;6.68;;;2.10;;
55150;SDS011;41041;43.162;20.538;2024-02-26T12:03:00;6.82;;;2.10;;
55150;SDS011;41041;43.162;20.538;2024-02-26T12:05:32;9.73;;;3.17;;
55150;SDS011;41041;43.162;20.538;2024-02-26T12:07:59;7.07;;;2.58;;
55150;SDS011;41041;43.162;20.538;2024-02-26T12:10:33;8.80;;;3.03;;
55150;SDS011;41041;43.162;20.538;2024-02-26T12:15:30;13.85;;;3.08;;
55150;SDS011;41041;43.162;20.538;2024-02-26T12:17:58;7.90;;;2.45;;
55150;SDS011;41041;43.162;20.538;2024-02-26T12:20:24;13.00;;;3.55;;
55150;SDS011;41041;43.162;20.538;2024-02-26T12:22:50;11.48;;;3.00;;
55150;SDS011;41041;43.162;20.538;2024-02-26T12:25:19;10.75;;;3.97;;
55150;SDS011;41041;43.162;20.538;2024-02-26T12:27:45;7.63;;;2.25;;
55150;SDS011;41041;43.162;20.538;2024-02-26T12:30:12;5.25;;;2.00;;
55150;SDS011;41041;43.162;20.538;2024-02-26T12:32:38;3.72;;;1.80;;
55150;SDS011;41041;43.162;20.538;2024-02-26T12:35:05;8.43;;;1.80;;
55150;SDS011;41041;43.162;20.538;2024-02-26T12:37:34;10.02;;;2.50;;
55150;SDS011;41041;43.162;20.538;2024-02-26T12:42:29;7.70;;;2.97;;
55150;SDS011;41041;43.162;20.538;2024-02-26T12:44:57;5.13;;;1.58;;
55150;SDS011;41041;43.162;20.538;2024-02-26T12:47:24;6.85;;;2.00;;
55150;SDS011;41041;43.162;20.538;2024-02-26T12:49:51;5.65;;;1.88;;
55150;SDS011;41041;43.162;20.538;2024-02-26T12:52:17;6.75;;;1.92;;
55150;SDS011;41041;43.162;20.538;2024-02-26T12:54:45;6.68;;;1.70;;
55150;SDS011;41041;43.162;20.538;2024-02-26T12:57:11;6.97;;;2.42;;
55150;SDS011;41041;43.162;20.538;2024-02-26T12:59:37;6.82;;;2.13;;
55150;SDS011;41041;43.162;20.538;2024-02-26T13:02:04;7.80;;;1.90;;
55150;SDS011;41041;43.162;20.538;2024-02-26T13:04:31;12.05;;;5.63;;
55150;SDS011;41041;43.162;20.538;2024-02-26T13:06:57;7.78;;;3.75;;
55150;SDS011;41041;43.162;20.538;2024-02-26T13:09:31;10.07;;;4.65;;
55150;SDS011;41041;43.162;20.538;2024-02-26T13:11:59;7.40;;;2.20;;
55150;SDS011;41041;43.162;20.538;2024-02-26T13:14:25;5.18;;;1.95;;
55150;SDS011;41041;43.162;20.538;2024-02-26T13:17:10;8.02;;;2.90;;
55150;SDS011;41041;43.162;20.538;2024-02-26T13:19:37;8.73;;;2.92;;
55150;SDS011;41041;43.162;20.538;2024-02-26T13:22:06;6.13;;;2.00;;
55150;SDS011;41041;43.162;20.538;2024-02-26T13:24:34;7.32;;;1.92;;
55150;SDS011;41041;43.162;20.538;2024-02-26T13:27:00;4.95;;;1.90;;
55150;SDS011;41041;43.162;20.538;2024-02-26T13:29:28;4.55;;;1.85;;
55150;SDS011;41041;43.162;20.538;2024-02-26T13:31:55;6.30;;;3.05;;
55150;SDS011;41041;43.162;20.538;2024-02-26T13:34:25;5.43;;;2.33;;
55150;SDS011;41041;43.162;20.538;2024-02-26T13:36:52;6.60;;;2.00;;
55150;SDS011;41041;43.162;20.538;2024-02-26T13:42:22;4.72;;;2.53;;
55150;SDS011;41041;43.162;20.538;2024-02-26T13:44:48;8.25;;;2.30;;
55150;SDS011;41041;43.162;20.538;2024-02-26T13:47:14;6.20;;;2.80;;
55150;SDS011;41041;43.162;20.538;2024-02-26T13:49:41;7.05;;;2.47;;
55150;SDS011;41041;43.162;20.538;2024-02-26T13:52:07;5.63;;;1.77;;
55150;SDS011;41041;43.162;20.538;2024-02-26T13:54:33;5.90;;;2.20;;
55150;SDS011;41041;43.162;20.538;2024-02-26T13:57:00;8.18;;;2.05;;
55150;SDS011;41041;43.162;20.538;2024-02-26T13:59:26;6.15;;;1.90;;
55150;SDS011;41041;43.162;20.538;2024-02-26T14:01:52;7.90;;;2.10;;
55150;SDS011;41041;43.162;20.538;2024-02-26T14:04:20;7.00;;;2.38;;
55150;SDS011;41041;43.162;20.538;2024-02-26T14:06:46;6.50;;;2.28;;
55150;SDS011;41041;43.162;20.538;2024-02-26T14:09:12;9.23;;;2.78;;
55150;SDS011;41041;43.162;20.538;2024-02-26T14:17:07;8.25;;;2.70;;
55150;SDS011;41041;43.162;20.538;2024-02-26T14:19:34;8.95;;;2.65;;
55150;SDS011;41041;43.162;20.538;2024-02-26T14:22:05;5.60;;;2.63;;
55150;SDS011;41041;43.162;20.538;2024-02-26T14:24:31;10.40;;;2.92;;
55150;SDS011;41041;43.162;20.538;2024-02-26T14:26:58;10.23;;;3.00;;
55150;SDS011;41041;43.162;20.538;2024-02-26T14:29:24;5.57;;;2.83;;
55150;SDS011;41041;43.162;20.538;2024-02-26T14:37:40;6.18;;;2.58;;
55150;SDS011;41041;43.162;20.538;2024-02-26T14:40:09;9.05;;;2.60;;
55150;SDS011;41041;43.162;20.538;2024-02-26T14:42:35;9.23;;;3.08;;
55150;SDS011;41041;43.162;20.538;2024-02-26T14:45:01;10.88;;;3.22;;
55150;SDS011;41041;43.162;20.538;2024-02-26T14:47:29;7.60;;;3.00;;
55150;SDS011;41041;43.162;20.538;2024-02-26T14:49:56;7.50;;;3.05;;
55150;SDS011;41041;43.162;20.538;2024-02-26T14:52:22;7.72;;;3.53;;
55150;SDS011;41041;43.162;20.538;2024-02-26T14:54:48;9.20;;;4.03;;
55150;SDS011;41041;43.162;20.538;2024-02-26T14:57:16;14.68;;;6.20;;
55150;SDS011;41041;43.162;20.538;2024-02-26T14:59:42;14.20;;;6.45;;
55150;SDS011;41041;43.162;20.538;2024-02-26T15:02:09;9.30;;;4.68;;
55150;SDS011;41041;43.162;20.538;2024-02-26T15:04:36;10.55;;;4.45;;
55150;SDS011;41041;43.162;20.538;2024-02-26T15:07:02;8.25;;;3.72;;
55150;SDS011;41041;43.162;20.538;2024-02-26T15:09:28;8.15;;;3.58;;
55150;SDS011;41041;43.162;20.538;2024-02-26T15:11:55;9.65;;;4.60;;
55150;SDS011;41041;43.162;20.538;2024-02-26T15:14:23;11.75;;;3.47;;
55150;SDS011;41041;43.162;20.538;2024-02-26T15:16:49;8.75;;;2.88;;
55150;SDS011;41041;43.162;20.538;2024-02-26T15:19:15;9.55;;;3.13;;
55150;SDS011;41041;43.162;20.538;2024-02-26T15:21:42;4.20;;;2.65;;
55150;SDS011;41041;43.162;20.538;2024-02-26T15:24:08;12.80;;;3.85;;
55150;SDS011;41041;43.162;20.538;2024-02-26T15:26:36;10.48;;;4.55;;
55150;SDS011;41041;43.162;20.538;2024-02-26T15:29:02;11.13;;;4.40;;
55150;SDS011;41041;43.162;20.538;2024-02-26T15:33:59;6.85;;;2.75;;
55150;SDS011;41041;43.162;20.538;2024-02-26T15:36:26;6.18;;;2.63;;
55150;SDS011;41041;43.162;20.538;2024-02-26T15:38:51;9.57;;;2.72;;
55150;SDS011;41041;43.162;20.538;2024-02-26T15:41:18;9.40;;;3.05;;
55150;SDS011;41041;43.162;20.538;2024-02-26T15:43:44;10.43;;;3.58;;
55150;SDS011;41041;43.162;20.538;2024-02-26T15:46:10;6.07;;;2.80;;
55150;SDS011;41041;43.162;20.538;2024-02-26T15:48:37;7.40;;;3.22;;
55150;SDS011;41041;43.162;20.538;2024-02-26T15:51:03;5.47;;;2.80;;
55150;SDS011;41041;43.162;20.538;2024-02-26T15:53:29;7.72;;;2.80;;
55150;SDS011;41041;43.162;20.538;2024-02-26T15:55:55;11.20;;;3.40;;
55150;SDS011;41041;43.162;20.538;2024-02-26T15:58:24;9.05;;;3.50;;
55150;SDS011;41041;43.162;20.538;2024-02-26T16:00:49;7.32;;;3.25;;
55150;SDS011;41041;43.162;20.538;2024-02-26T16:03:15;8.95;;;3.90;;
55150;SDS011;41041;43.162;20.538;2024-02-26T16:05:42;12.40;;;4.85;;
55150;SDS011;41041;43.162;20.538;2024-02-26T16:08:13;11.05;;;5.40;;
55150;SDS011;41041;43.162;20.538;2024-02-26T16:10:46;9.63;;;4.10;;
55150;SDS011;41041;43.162;20.538;2024-02-26T16:13:19;10.45;;;4.60;;
55150;SDS011;41041;43.162;20.538;2024-02-26T16:15:47;8.68;;;3.20;;
55150;SDS011;41041;43.162;20.538;2024-02-26T16:21:41;9.93;;;3.80;;
55150;SDS011;41041;43.162;20.538;2024-02-26T16:24:08;11.48;;;3.67;;
55150;SDS011;41041;43.162;20.538;2024-02-26T16:29:40;12.13;;;5.93;;
55150;SDS011;41041;43.162;20.538;2024-02-26T16:32:10;11.05;;;5.00;;
55150;SDS011;41041;43.162;20.538;2024-02-26T16:34:36;14.85;;;6.78;;
55150;SDS011;41041;43.162;20.538;2024-02-26T16:37:09;13.57;;;5.38;;
55150;SDS011;41041;43.162;20.538;2024-02-26T16:39:41;16.83;;;7.50;;
55150;SDS011;41041;43.162;20.538;2024-02-26T16:42:07;12.15;;;5.38;;
55150;SDS011;41041;43.162;20.538;2024-02-26T16:44:35;15.55;;;5.97;;
55150;SDS011;41041;43.162;20.538;2024-02-26T16:47:02;15.35;;;6.55;;
55150;SDS011;41041;43.162;20.538;2024-02-26T16:49:29;10.75;;;5.40;;
55150;SDS011;41041;43.162;20.538;2024-02-26T16:51:55;11.15;;;6.05;;
55150;SDS011;41041;43.162;20.538;2024-02-26T16:54:25;12.40;;;6.03;;
55150;SDS011;41041;43.162;20.538;2024-02-26T16:56:51;18.90;;;9.00;;
55150;SDS011;41041;43.162;20.538;2024-02-26T16:59:17;11.68;;;5.57;;
55150;SDS011;41041;43.162;20.538;2024-02-26T17:01:44;19.13;;;7.10;;
55150;SDS011;41041;43.162;20.538;2024-02-26T17:04:11;12.65;;;5.78;;
55150;SDS011;41041;43.162;20.538;2024-02-26T17:06:37;18.85;;;7.78;;
55150;SDS011;41041;43.162;20.538;2024-02-26T17:09:03;31.80;;;14.55;;
55150;SDS011;41041;43.162;20.538;2024-02-26T17:23:58;23.05;;;11.35;;
55150;SDS011;41041;43.162;20.538;2024-02-26T17:26:27;12.23;;;5.38;;
55150;SDS011;41041;43.162;20.538;2024-02-26T17:28:54;14.13;;;7.97;;
55150;SDS011;41041;43.162;20.538;2024-02-26T17:31:21;19.42;;;9.10;;
55150;SDS011;41041;43.162;20.538;2024-02-26T17:33:50;19.52;;;9.95;;
55150;SDS011;41041;43.162;20.538;2024-02-26T17:36:18;14.93;;;8.60;;
55150;SDS011;41041;43.162;20.538;2024-02-26T17:38:44;16.35;;;6.13;;
55150;SDS011;41041;43.162;20.538;2024-02-26T17:41:13;16.75;;;8.27;;
55150;SDS011;41041;43.162;20.538;2024-02-26T17:43:39;13.05;;;5.15;;
55150;SDS011;41041;43.162;20.538;2024-02-26T17:49:12;27.00;;;14.65;;
55150;SDS011;41041;43.162;20.538;2024-02-26T17:54:42;20.83;;;9.68;;
55150;SDS011;41041;43.162;20.538;2024-02-26T17:57:09;23.88;;;8.70;;
55150;SDS011;41041;43.162;20.538;2024-02-26T17:59:35;22.00;;;8.10;;
55150;SDS011;41041;43.162;20.538;2024-02-26T18:02:01;17.55;;;6.22;;
55150;SDS011;41041;43.162;20.538;2024-02-26T18:04:27;17.63;;;6.07;;
55150;SDS011;41041;43.162;20.538;2024-02-26T18:06:54;14.27;;;5.70;;
55150;SDS011;41041;43.162;20.538;2024-02-26T18:09:20;19.25;;;5.40;;
55150;SDS011;41041;43.162;20.538;2024-02-26T18:11:46;18.75;;;8.45;;
55150;SDS011;41041;43.162;20.538;2024-02-26T18:17:16;28.63;;;13.63;;
55150;SDS011;41041;43.162;20.538;2024-02-26T18:19:44;18.35;;;7.65;;
55150;SDS011;41041;43.162;20.538;2024-02-26T18:22:10;16.80;;;6.07;;
55150;SDS011;41041;43.162;20.538;2024-02-26T18:24:36;24.80;;;14.40;;
55150;SDS011;41041;43.162;20.538;2024-02-26T18:27:02;18.08;;;8.40;;
55150;SDS011;41041;43.162;20.538;2024-02-26T18:29:29;22.17;;;10.40;;
55150;SDS011;41041;43.162;20.538;2024-02-26T18:31:55;17.35;;;6.93;;
55150;SDS011;41041;43.162;20.538;2024-02-26T18:34:36;14.38;;;7.28;;
55150;SDS011;41041;43.162;20.538;2024-02-26T18:37:03;14.35;;;7.40;;
55150;SDS011;41041;43.162;20.538;2024-02-26T18:39:32;12.63;;;6.80;;
55150;SDS011;41041;43.162;20.538;2024-02-26T18:41:59;13.68;;;6.45;;
55150;SDS011;41041;43.162;20.538;2024-02-26T18:44:25;17.98;;;6.93;;
55150;SDS011;41041;43.162;20.538;2024-02-26T18:46:52;17.70;;;6.78;;
55150;SDS011;41041;43.162;20.538;2024-02-26T18:49:18;26.23;;;8.90;;
55150;SDS011;41041;43.162;20.538;2024-02-26T18:51:44;21.05;;;10.65;;
55150;SDS011;41041;43.162;20.538;2024-02-26T18:54:10;24.90;;;10.80;;
55150;SDS011;41041;43.162;20.538;2024-02-26T18:56:36;22.73;;;11.55;;
55150;SDS011;41041;43.162;20.538;2024-02-26T18:59:03;21.92;;;9.88;;
55150;SDS011;41041;43.162;20.538;2024-02-26T19:01:29;29.80;;;12.90;;
55150;SDS011;41041;43.162;20.538;2024-02-26T19:03:56;23.70;;;11.50;;
55150;SDS011;41041;43.162;20.538;2024-02-26T19:06:23;32.10;;;17.80;;
55150;SDS011;41041;43.162;20.538;2024-02-26T19:08:49;29.73;;;14.15;;
55150;SDS011;41041;43.162;20.538;2024-02-26T19:11:15;32.08;;;13.75;;
55150;SDS011;41041;43.162;20.538;2024-02-26T19:13:42;21.83;;;11.15;;
55150;SDS011;41041;43.162;20.538;2024-02-26T19:16:08;24.70;;;12.43;;
55150;SDS011;41041;43.162;20.538;2024-02-26T19:18:34;19.58;;;10.43;;
55150;SDS011;41041;43.162;20.538;2024-02-26T19:21:01;20.02;;;10.85;;
55150;SDS011;41041;43.162;20.538;2024-02-26T19:23:27;23.67;;;11.38;;
55150;SDS011;41041;43.162;20.538;2024-02-26T19:25:53;20.65;;;11.02;;
55150;SDS011;41041;43.162;20.538;2024-02-26T19:28:20;22.13;;;12.43;;
55150;SDS011;41041;43.162;20.538;2024-02-26T19:30:46;23.77;;;12.18;;
55150;SDS011;41041;43.162;20.538;2024-02-26T19:33:12;25.77;;;13.57;;
55150;SDS011;41041;43.162;20.538;2024-02-26T19:35:38;42.22;;;19.27;;
55150;SDS011;41041;43.162;20.538;2024-02-26T19:38:04;35.50;;;17.05;;
55150;SDS011;41041;43.162;20.538;2024-02-26T19:40:31;60.42;;;31.33;;
55150;SDS011;41041;43.162;20.538;2024-02-26T19:42:57;33.08;;;16.48;;
55150;SDS011;41041;43.162;20.538;2024-02-26T19:45:23;38.28;;;20.15;;
55150;SDS011;41041;43.162;20.538;2024-02-26T19:47:50;22.15;;;11.70;;
55150;SDS011;41041;43.162;20.538;2024-02-26T19:52:49;25.50;;;11.13;;
55150;SDS011;41041;43.162;20.538;2024-02-26T19:55:16;23.75;;;11.10;;
55150;SDS011;41041;43.162;20.538;2024-02-26T20:00:48;24.38;;;10.45;;
55150;SDS011;41041;43.162;20.538;2024-02-26T20:03:14;22.60;;;12.25;;
55150;SDS011;41041;43.162;20.538;2024-02-26T20:05:41;17.83;;;9.57;;
55150;SDS011;41041;43.162;20.538;2024-02-26T20:08:08;21.65;;;9.15;;
55150;SDS011;41041;43.162;20.538;2024-02-26T20:10:35;18.15;;;9.55;;
55150;SDS011;41041;43.162;20.538;2024-02-26T20:13:01;20.75;;;9.93;;
55150;SDS011;41041;43.162;20.538;2024-02-26T20:15:27;18.35;;;9.20;;
55150;SDS011;41041;43.162;20.538;2024-02-26T20:17:53;15.38;;;8.73;;
55150;SDS011;41041;43.162;20.538;2024-02-26T20:20:19;18.63;;;8.05;;
55150;SDS011;41041;43.162;20.538;2024-02-26T20:22:51;15.20;;;7.97;;